Time;durP1;ratioP1;P1;durP2;ratioP2;P2;SDS_P1;SDS_P2;PMS_P1;PMS_P2;Temp;Humidity;BMP_temperature;BMP_pressure;BME280_temperature;BME280_humidity;BME280_pressure;Samples;Min_cycle;Max_cycle;Signal;HPM_P1;HPM_P2
2023/07/26 00:01:25;;;;;;;13.05;9.10;;;;;;;;;;4958536;29;20507;-72
2023/07/26 00:03:55;;;;;;;12.57;10.10;;;;;;;;;;4941618;29;20082;-72
2023/07/26 00:06:20;;;;;;;13.68;9.60;;;;;;;;;;4958478;29;20035;-72
2023/07/26 00:08:46;;;;;;;12.10;9.63;;;;;;;;;;4958225;29;20104;-73
2023/07/26 00:11:11;;;;;;;10.13;7.90;;;;;;;;;;4958371;29;20024;-72
2023/07/26 00:13:36;;;;;;;9.05;7.40;;;;;;;;;;4958199;29;20046;-72
2023/07/26 00:16:02;;;;;;;8.82;7.45;;;;;;;;;;4958390;29;20031;-72
2023/07/26 00:18:27;;;;;;;12.07;7.93;;;;;;;;;;4957982;29;20035;-72
2023/07/26 00:20:52;;;;;;;8.68;7.20;;;;;;;;;;4958104;29;20062;-72
2023/07/26 00:23:18;;;;;;;7.50;6.30;;;;;;;;;;4957683;29;20035;-70
2023/07/26 00:25:43;;;;;;;8.45;7.03;;;;;;;;;;4957890;29;20031;-71
2023/07/26 00:28:09;;;;;;;7.68;6.90;;;;;;;;;;4958277;29;20028;-70
2023/07/26 00:30:34;;;;;;;7.60;6.28;;;;;;;;;;4940718;29;20424;-70
2023/07/26 00:33:00;;;;;;;8.18;6.38;;;;;;;;;;4971999;28;20083;-72
2023/07/26 00:35:28;;;;;;;7.20;6.43;;;;;;;;;;4940384;29;20470;-71
2023/07/26 00:37:53;;;;;;;6.30;5.65;;;;;;;;;;4940329;29;20027;-71
2023/07/26 00:40:19;;;;;;;5.93;5.40;;;;;;;;;;4941007;29;20378;-70
2023/07/26 00:42:44;;;;;;;5.88;5.32;;;;;;;;;;4940481;29;20034;-71
2023/07/26 00:45:10;;;;;;;5.63;5.03;;;;;;;;;;4958050;29;20494;-71
2023/07/26 00:47:35;;;;;;;7.18;4.90;;;;;;;;;;4957865;29;20037;-71
2023/07/26 00:50:01;;;;;;;5.93;5.30;;;;;;;;;;4957796;29;20023;-68
2023/07/26 00:52:26;;;;;;;6.65;5.68;;;;;;;;;;4957755;29;20027;-70
2023/07/26 00:54:58;;;;;;;6.78;5.65;;;;;;;;;;4940338;29;20467;-70
2023/07/26 00:57:25;;;;;;;10.30;5.82;;;;;;;;;;4940765;29;20035;-72
2023/07/26 00:59:52;;;;;;;8.32;6.60;;;;;;;;;;4940464;29;20059;-70
2023/07/26 01:02:17;;;;;;;6.47;5.68;;;;;;;;;;4957400;29;20027;-71
2023/07/26 01:04:42;;;;;;;6.07;5.20;;;;;;;;;;4957433;29;20691;-71
2023/07/26 01:07:19;;;;;;;5.65;5.15;;;;;;;;;;4940321;29;20023;-68
2023/07/26 01:09:46;;;;;;;6.00;5.18;;;;;;;;;;4940012;29;20051;-71
2023/07/26 01:12:33;;;;;;;5.75;5.15;;;;;;;;;;4972401;28;20118;-69
2023/07/26 01:15:00;;;;;;;5.25;4.75;;;;;;;;;;4957315;29;20086;-69
2023/07/26 01:17:27;;;;;;;5.70;5.07;;;;;;;;;;4939778;29;20118;-72
2023/07/26 01:19:52;;;;;;;4.93;4.43;;;;;;;;;;4957003;29;20098;-71
2023/07/26 01:22:18;;;;;;;5.10;4.60;;;;;;;;;;4939833;29;20463;-71
2023/07/26 01:24:43;;;;;;;5.05;4.57;;;;;;;;;;4956994;29;20066;-69
2023/07/26 01:27:08;;;;;;;6.22;4.95;;;;;;;;;;4957061;29;20039;-72
2023/07/26 01:29:34;;;;;;;5.72;4.68;;;;;;;;;;4939870;29;20039;-72
2023/07/26 01:31:59;;;;;;;4.75;4.20;;;;;;;;;;4956972;29;20368;-71
2023/07/26 01:34:25;;;;;;;4.78;4.13;;;;;;;;;;4956765;29;20035;-71
2023/07/26 01:36:52;;;;;;;3.95;3.58;;;;;;;;;;4939571;29;20039;-73
2023/07/26 01:39:19;;;;;;;4.40;4.03;;;;;;;;;;4956847;29;20046;-72
2023/07/26 01:41:48;;;;;;;4.30;3.92;;;;;;;;;;4956623;29;20031;-71
2023/07/26 01:44:13;;;;;;;4.40;4.00;;;;;;;;;;4938611;29;20031;-71
2023/07/26 01:46:38;;;;;;;4.60;4.25;;;;;;;;;;4924004;29;20027;-71
2023/07/26 01:49:04;;;;;;;4.65;4.28;;;;;;;;;;4939897;29;20063;-72
2023/07/26 01:51:29;;;;;;;4.85;4.25;;;;;;;;;;4956462;29;20450;-72
2023/07/26 01:53:55;;;;;;;4.10;3.67;;;;;;;;;;4956656;29;20082;-72
2023/07/26 01:56:20;;;;;;;4.50;4.07;;;;;;;;;;4939874;29;20031;-72
2023/07/26 01:58:46;;;;;;;5.13;4.43;;;;;;;;;;4939699;29;20042;-72
2023/07/26 02:01:12;;;;;;;4.18;3.88;;;;;;;;;;4939527;29;20023;-76
2023/07/26 02:03:38;;;;;;;5.22;4.45;;;;;;;;;;4938999;29;20027;-75
2023/07/26 02:06:03;;;;;;;4.57;4.20;;;;;;;;;;4939465;29;20027;-75
2023/07/26 02:08:30;;;;;;;4.50;4.10;;;;;;;;;;4938783;29;20513;-75
2023/07/26 02:10:55;;;;;;;5.30;4.40;;;;;;;;;;4923543;29;20470;-75
2023/07/26 02:13:20;;;;;;;4.80;4.30;;;;;;;;;;4956455;29;20039;-74
2023/07/26 02:15:46;;;;;;;6.53;5.13;;;;;;;;;;4938964;29;20039;-72
2023/07/26 02:18:12;;;;;;;6.95;4.75;;;;;;;;;;4939013;29;20027;-72
2023/07/26 02:20:37;;;;;;;5.30;4.60;;;;;;;;;;4937899;29;20483;-74
2023/07/26 02:23:03;;;;;;;4.75;3.90;;;;;;;;;;4937761;29;20418;-74
2023/07/26 02:25:28;;;;;;;5.03;4.53;;;;;;;;;;4955027;29;20018;-72
2023/07/26 02:27:57;;;;;;;5.43;4.65;;;;;;;;;;4938799;29;20398;-72
2023/07/26 02:30:22;;;;;;;7.43;6.50;;;;;;;;;;4938897;29;20028;-72
2023/07/26 02:32:48;;;;;;;9.88;7.90;;;;;;;;;;4922610;29;20097;-72
2023/07/26 02:35:13;;;;;;;9.23;6.75;;;;;;;;;;4939034;29;20533;-72
2023/07/26 02:37:39;;;;;;;6.85;5.97;;;;;;;;;;4938316;29;20031;-72
2023/07/26 02:40:04;;;;;;;7.45;6.57;;;;;;;;;;4955592;29;20498;-71
2023/07/26 02:42:31;;;;;;;7.05;6.32;;;;;;;;;;4955423;29;20530;-72
2023/07/26 02:44:56;;;;;;;8.27;6.85;;;;;;;;;;4955715;29;20034;-72
2023/07/26 02:47:21;;;;;;;7.38;6.60;;;;;;;;;;4955472;29;20463;-72
2023/07/26 02:49:47;;;;;;;7.47;6.53;;;;;;;;;;4937641;29;20027;-72
2023/07/26 02:52:14;;;;;;;7.18;5.85;;;;;;;;;;4937308;29;20122;-73
2023/07/26 02:54:39;;;;;;;7.05;5.72;;;;;;;;;;4938035;29;20110;-73
2023/07/26 02:57:05;;;;;;;9.13;5.68;;;;;;;;;;4922682;29;20582;-73
2023/07/26 02:59:31;;;;;;;6.55;5.78;;;;;;;;;;4938290;29;20034;-72
2023/07/26 03:01:56;;;;;;;6.18;5.28;;;;;;;;;;4954343;29;20083;-73
2023/07/26 03:04:21;;;;;;;6.93;5.57;;;;;;;;;;4936245;29;20085;-73
2023/07/26 03:06:47;;;;;;;5.03;4.63;;;;;;;;;;4953622;29;20027;-73
2023/07/26 03:09:13;;;;;;;5.57;5.00;;;;;;;;;;4953821;29;20402;-73
2023/07/26 03:11:38;;;;;;;4.90;4.50;;;;;;;;;;4953974;29;20503;-72
2023/07/26 03:14:03;;;;;;;6.07;4.32;;;;;;;;;;4954046;29;20020;-72
2023/07/26 03:16:29;;;;;;;6.45;5.80;;;;;;;;;;4954455;29;20086;-72
2023/07/26 03:18:54;;;;;;;6.28;5.75;;;;;;;;;;4937965;29;20031;-72
2023/07/26 03:21:19;;;;;;;6.32;5.72;;;;;;;;;;4955461;29;20110;-72
2023/07/26 03:23:45;;;;;;;7.13;5.43;;;;;;;;;;4937906;29;20048;-72
2023/07/26 03:26:10;;;;;;;7.53;6.00;;;;;;;;;;4955306;29;20131;-72
2023/07/26 03:28:36;;;;;;;7.03;5.72;;;;;;;;;;4937969;29;20439;-72
2023/07/26 03:31:01;;;;;;;6.50;4.78;;;;;;;;;;4938209;29;20542;-73
2023/07/26 03:33:26;;;;;;;7.70;4.60;;;;;;;;;;4937875;29;20110;-72
2023/07/26 03:35:53;;;;;;;4.72;4.38;;;;;;;;;;4937840;29;20037;-72
2023/07/26 03:38:18;;;;;;;4.25;3.88;;;;;;;;;;4937844;29;20062;-72
2023/07/26 03:40:45;;;;;;;4.97;4.53;;;;;;;;;;4938223;29;20032;-72
2023/07/26 03:43:10;;;;;;;6.60;4.97;;;;;;;;;;4938292;29;20126;-72
2023/07/26 03:45:36;;;;;;;7.82;5.20;;;;;;;;;;4955274;29;20027;-72
2023/07/26 03:48:01;;;;;;;7.90;5.85;;;;;;;;;;4955159;29;20077;-72
2023/07/26 03:50:26;;;;;;;9.32;5.90;;;;;;;;;;4955357;29;20046;-72
2023/07/26 03:52:52;;;;;;;8.05;6.78;;;;;;;;;;4955010;29;20031;-73
2023/07/26 03:55:17;;;;;;;10.90;7.63;;;;;;;;;;4955121;29;20038;-73
2023/07/26 03:57:43;;;;;;;9.38;6.68;;;;;;;;;;4954907;29;20467;-73
2023/07/26 04:00:09;;;;;;;8.40;6.53;;;;;;;;;;4938199;29;20090;-73
2023/07/26 04:02:37;;;;;;;7.97;6.45;;;;;;;;;;4955073;29;20121;-73
2023/07/26 04:05:03;;;;;;;7.82;6.63;;;;;;;;;;4955235;29;20037;-73
2023/07/26 04:07:29;;;;;;;11.15;6.57;;;;;;;;;;4956398;28;20028;-72
2023/07/26 04:09:54;;;;;;;8.63;6.20;;;;;;;;;;4957279;29;20023;-72
2023/07/26 04:12:19;;;;;;;8.73;6.22;;;;;;;;;;4957267;29;20070;-72
2023/07/26 04:14:45;;;;;;;8.13;6.90;;;;;;;;;;4940204;29;20032;-72
2023/07/26 04:17:10;;;;;;;7.65;6.40;;;;;;;;;;4940298;29;20055;-72
2023/07/26 04:19:35;;;;;;;7.57;6.60;;;;;;;;;;4957328;29;20039;-72
2023/07/26 04:22:01;;;;;;;8.88;6.70;;;;;;;;;;4956551;29;20340;-71
2023/07/26 04:24:26;;;;;;;8.07;6.88;;;;;;;;;;4957392;29;20043;-72
2023/07/26 04:26:53;;;;;;;7.00;6.32;;;;;;;;;;4941025;29;20058;-71
2023/07/26 04:29:18;;;;;;;8.00;6.57;;;;;;;;;;4958009;29;20023;-71
2023/07/26 04:31:44;;;;;;;9.02;6.40;;;;;;;;;;4958425;29;20034;-72
2023/07/26 04:34:09;;;;;;;8.10;6.72;;;;;;;;;;4958260;29;20391;-72
2023/07/26 04:36:35;;;;;;;8.27;6.60;;;;;;;;;;4957762;29;20043;-72
2023/07/26 04:39:00;;;;;;;8.77;6.85;;;;;;;;;;4958315;29;20110;-73
2023/07/26 04:41:25;;;;;;;8.15;6.47;;;;;;;;;;4958073;29;20035;-72
2023/07/26 04:43:51;;;;;;;9.55;7.00;;;;;;;;;;4957954;29;20108;-72
2023/07/26 04:46:16;;;;;;;9.63;6.75;;;;;;;;;;4940458;29;20027;-72
2023/07/26 04:48:41;;;;;;;7.65;6.72;;;;;;;;;;4940491;29;20027;-71
2023/07/26 04:51:07;;;;;;;11.02;7.72;;;;;;;;;;4957522;29;20041;-72
2023/07/26 04:53:32;;;;;;;10.10;6.90;;;;;;;;;;4940642;29;20119;-72
2023/07/26 04:55:58;;;;;;;9.25;7.50;;;;;;;;;;4957479;29;20039;-72
2023/07/26 04:58:23;;;;;;;10.23;7.95;;;;;;;;;;4924620;29;20350;-72
2023/07/26 05:03:32;;;;;;;11.27;7.88;;;;;;;;;;5001138;23;20077;-72
2023/07/26 05:05:58;;;;;;;13.75;7.85;;;;;;;;;;4978820;28;20100;-72
2023/07/26 05:08:23;;;;;;;12.98;8.60;;;;;;;;;;4995926;28;20467;-72
2023/07/26 05:10:50;;;;;;;13.75;8.93;;;;;;;;;;4978433;28;20061;-72
2023/07/26 05:13:15;;;;;;;12.07;8.35;;;;;;;;;;5004823;28;20065;-72
2023/07/26 05:15:41;;;;;;;11.95;8.25;;;;;;;;;;4997347;28;20061;-72
2023/07/26 05:18:06;;;;;;;11.48;9.05;;;;;;;;;;4997504;28;20493;-72
2023/07/26 05:20:31;;;;;;;11.75;8.13;;;;;;;;;;5015070;28;20037;-72
2023/07/26 05:22:57;;;;;;;9.93;7.53;;;;;;;;;;5014840;28;20084;-73
2023/07/26 05:25:22;;;;;;;11.98;7.90;;;;;;;;;;5007876;28;20476;-73
2023/07/26 05:27:48;;;;;;;12.77;7.35;;;;;;;;;;4994602;28;20031;-72
2023/07/26 05:30:14;;;;;;;10.25;8.77;;;;;;;;;;4994506;28;20097;-72
2023/07/26 05:32:39;;;;;;;16.20;9.85;;;;;;;;;;4993892;28;20400;-72
2023/07/26 05:35:05;;;;;;;17.88;11.07;;;;;;;;;;4976264;28;20042;-72
2023/07/26 05:37:34;;;;;;;14.10;10.30;;;;;;;;;;4993495;28;20030;-72
2023/07/26 05:40:00;;;;;;;15.68;10.35;;;;;;;;;;4976213;28;20034;-72
2023/07/26 05:42:25;;;;;;;11.25;9.50;;;;;;;;;;4993535;28;20103;-72
2023/07/26 05:44:50;;;;;;;9.90;8.23;;;;;;;;;;4977494;28;20068;-72
2023/07/26 05:47:15;;;;;;;9.95;7.38;;;;;;;;;;4977573;28;20030;-72
2023/07/26 05:49:42;;;;;;;9.43;8.52;;;;;;;;;;4994932;28;20072;-72
2023/07/26 05:52:08;;;;;;;7.80;7.10;;;;;;;;;;4994939;28;20026;-72
2023/07/26 05:54:34;;;;;;;10.70;8.85;;;;;;;;;;4994916;28;20121;-72
2023/07/26 05:57:02;;;;;;;9.20;7.03;;;;;;;;;;4994767;28;20109;-72
2023/07/26 05:59:28;;;;;;;7.53;6.65;;;;;;;;;;4977251;28;20466;-72
2023/07/26 06:01:53;;;;;;;6.22;5.60;;;;;;;;;;4973001;28;20077;-72
2023/07/26 06:04:18;;;;;;;6.60;4.90;;;;;;;;;;4977636;28;20058;-71
2023/07/26 06:06:45;;;;;;;4.95;4.55;;;;;;;;;;4975939;28;20027;-71
2023/07/26 06:09:10;;;;;;;6.47;4.32;;;;;;;;;;4975135;28;20042;-72
2023/07/26 06:11:39;;;;;;;4.00;3.72;;;;;;;;;;4975925;28;20023;-71
2023/07/26 06:14:04;;;;;;;3.83;3.47;;;;;;;;;;4974929;28;20480;-71
2023/07/26 06:16:30;;;;;;;4.00;3.45;;;;;;;;;;4956935;28;20538;-71
2023/07/26 06:18:55;;;;;;;4.07;3.70;;;;;;;;;;4974075;28;20045;-71
2023/07/26 06:21:20;;;;;;;3.90;3.60;;;;;;;;;;4973890;28;20501;-71
2023/07/26 06:23:46;;;;;;;3.17;2.97;;;;;;;;;;4956103;28;20073;-71
2023/07/26 06:26:11;;;;;;;3.47;3.22;;;;;;;;;;4973192;28;20019;-71
2023/07/26 06:28:37;;;;;;;4.57;4.18;;;;;;;;;;4973095;28;20022;-71
2023/07/26 06:31:02;;;;;;;4.82;4.43;;;;;;;;;;4972648;28;20453;-71
2023/07/26 06:33:27;;;;;;;4.60;4.28;;;;;;;;;;4973126;28;20034;-71
2023/07/26 06:35:53;;;;;;;5.07;4.38;;;;;;;;;;4973377;28;20022;-71
2023/07/26 06:38:19;;;;;;;4.60;3.75;;;;;;;;;;4974142;28;20533;-71
2023/07/26 06:40:44;;;;;;;4.60;4.20;;;;;;;;;;4974942;28;20034;-71
2023/07/26 06:43:10;;;;;;;3.78;3.47;;;;;;;;;;4974847;28;20086;-71
2023/07/26 06:45:35;;;;;;;4.18;3.78;;;;;;;;;;4975008;28;20031;-72
2023/07/26 06:48:00;;;;;;;4.93;4.63;;;;;;;;;;4974883;28;20026;-71
2023/07/26 06:50:26;;;;;;;5.50;4.75;;;;;;;;;;4975137;28;20027;-72
2023/07/26 06:52:51;;;;;;;5.18;4.47;;;;;;;;;;4974804;28;20370;-71
2023/07/26 06:55:16;;;;;;;5.20;4.47;;;;;;;;;;4975369;28;20039;-71
2023/07/26 06:57:41;;;;;;;5.10;4.63;;;;;;;;;;4957575;28;20030;-72
2023/07/26 07:00:12;;;;;;;5.40;4.90;;;;;;;;;;4957436;28;20480;-72
2023/07/26 07:02:37;;;;;;;;;;;;;;;;;;4986673;28;20181;-71
2023/07/26 07:05:02;;;;;;;4.33;4.03;;;;;;;;;;4994070;28;20412;-72
2023/07/26 07:07:28;;;;;;;4.57;4.28;;;;;;;;;;4994365;28;20329;-71
2023/07/26 07:09:53;;;;;;;4.53;4.13;;;;;;;;;;4987010;23;20050;-72
2023/07/26 07:12:18;;;;;;;4.07;3.78;;;;;;;;;;4984239;23;20122;-72
2023/07/26 07:14:44;;;;;;;4.13;3.80;;;;;;;;;;4994040;28;20023;-72
2023/07/26 07:17:09;;;;;;;4.75;3.83;;;;;;;;;;4994549;28;20038;-72
2023/07/26 07:19:34;;;;;;;4.30;3.97;;;;;;;;;;4960450;28;20038;-72
2023/07/26 07:22:00;;;;;;;4.38;3.97;;;;;;;;;;4994189;28;20041;-72
2023/07/26 07:24:25;;;;;;;3.88;3.67;;;;;;;;;;4994146;28;20035;-72
2023/07/26 07:26:50;;;;;;;4.63;4.03;;;;;;;;;;4993890;28;20109;-72
2023/07/26 07:29:15;;;;;;;4.30;4.00;;;;;;;;;;4993860;28;20434;-72
2023/07/26 07:31:41;;;;;;;3.65;3.42;;;;;;;;;;4993868;28;20031;-72
2023/07/26 07:34:06;;;;;;;3.50;3.20;;;;;;;;;;4976366;28;20038;-72
2023/07/26 07:36:31;;;;;;;3.75;3.40;;;;;;;;;;4993835;28;20038;-72
2023/07/26 07:38:57;;;;;;;3.63;3.40;;;;;;;;;;4994090;28;20030;-72
2023/07/26 07:41:22;;;;;;;3.30;3.10;;;;;;;;;;4994071;28;20080;-72
2023/07/26 07:43:47;;;;;;;3.15;2.83;;;;;;;;;;4997425;28;20080;-72
2023/07/26 07:46:13;;;;;;;3.63;2.72;;;;;;;;;;4997714;28;20030;-72
2023/07/26 07:48:40;;;;;;;2.95;2.70;;;;;;;;;;4997707;28;20030;-72
2023/07/26 07:51:05;;;;;;;2.90;2.70;;;;;;;;;;4980317;28;20093;-72
2023/07/26 07:53:30;;;;;;;3.05;2.85;;;;;;;;;;4997357;28;20027;-72
2023/07/26 07:55:57;;;;;;;3.78;2.90;;;;;;;;;;4997313;28;20469;-72
2023/07/26 07:58:23;;;;;;;4.00;3.03;;;;;;;;;;4997555;28;20030;-72
2023/07/26 08:00:48;;;;;;;3.10;3.00;;;;;;;;;;4997546;28;20480;-72
2023/07/26 08:03:13;;;;;;;3.22;3.03;;;;;;;;;;4997106;28;20512;-72
2023/07/26 08:05:39;;;;;;;3.08;2.88;;;;;;;;;;4997161;28;20089;-72
2023/07/26 08:08:06;;;;;;;3.50;3.13;;;;;;;;;;4997121;28;20480;-72
2023/07/26 08:10:31;;;;;;;4.00;3.63;;;;;;;;;;4997029;28;20465;-72
2023/07/26 08:12:56;;;;;;;3.42;3.17;;;;;;;;;;4997351;28;20030;-72
2023/07/26 08:15:22;;;;;;;3.63;3.33;;;;;;;;;;4996958;28;20114;-72
2023/07/26 08:17:47;;;;;;;3.30;3.10;;;;;;;;;;4996863;28;20067;-72
2023/07/26 08:20:13;;;;;;;3.50;3.22;;;;;;;;;;4996845;28;20026;-72
2023/07/26 08:22:38;;;;;;;3.28;3.08;;;;;;;;;;4979758;28;20054;-72
2023/07/26 08:25:04;;;;;;;3.38;3.17;;;;;;;;;;4979317;28;20041;-72
2023/07/26 08:27:29;;;;;;;3.28;2.90;;;;;;;;;;4979361;28;20045;-72
2023/07/26 08:29:55;;;;;;;4.35;3.38;;;;;;;;;;4996972;28;20026;-72
2023/07/26 08:32:20;;;;;;;3.35;3.15;;;;;;;;;;4996652;28;20465;-72
2023/07/26 08:34:45;;;;;;;3.92;3.58;;;;;;;;;;4996611;28;20113;-72
2023/07/26 08:37:11;;;;;;;3.65;3.35;;;;;;;;;;4996551;28;20030;-72
2023/07/26 08:39:36;;;;;;;3.22;2.92;;;;;;;;;;4979079;28;20026;-72
2023/07/26 08:42:02;;;;;;;3.08;2.88;;;;;;;;;;4996681;28;20026;-72
2023/07/26 08:44:28;;;;;;;2.70;2.50;;;;;;;;;;4996606;28;20026;-72
2023/07/26 08:46:54;;;;;;;2.85;2.65;;;;;;;;;;4996616;28;20044;-72
2023/07/26 08:49:19;;;;;;;2.78;2.67;;;;;;;;;;4978980;28;20030;-72
2023/07/26 08:51:45;;;;;;;2.63;2.53;;;;;;;;;;4996293;28;20093;-72
2023/07/26 08:54:10;;;;;;;2.50;2.40;;;;;;;;;;4996319;28;20114;-72
2023/07/26 08:56:35;;;;;;;2.30;2.20;;;;;;;;;;4996211;28;20054;-72
2023/07/26 08:59:01;;;;;;;2.03;1.92;;;;;;;;;;4996093;28;20121;-72
2023/07/26 09:01:27;;;;;;;1.98;1.88;;;;;;;;;;4996336;28;20056;-72
2023/07/26 09:03:52;;;;;;;2.20;2.00;;;;;;;;;;4995915;28;20034;-72
2023/07/26 09:06:18;;;;;;;2.20;2.10;;;;;;;;;;4978507;28;20033;-72
2023/07/26 09:08:44;;;;;;;1.75;1.55;;;;;;;;;;4996511;28;20066;-72
2023/07/26 09:11:23;;;;;;;1.27;1.27;;;;;;;;;;4995907;28;20034;-72
2023/07/26 09:13:59;;;;;;;1.30;1.30;;;;;;;;;;5014584;28;20049;-72
2023/07/26 09:16:28;;;;;;;1.50;1.40;;;;;;;;;;4998137;28;20034;-72
2023/07/26 09:19:04;;;;;;;1.40;1.40;;;;;;;;;;5020288;23;20065;-72
2023/07/26 09:21:30;;;;;;;1.70;1.70;;;;;;;;;;4995807;28;20037;-71
2023/07/26 09:23:56;;;;;;;1.65;1.55;;;;;;;;;;4996162;28;20059;-72
2023/07/26 09:26:37;;;;;;;1.90;1.80;;;;;;;;;;4995641;28;20030;-71
2023/07/26 09:29:07;;;;;;;2.05;1.95;;;;;;;;;;4995804;28;20034;-71
2023/07/26 09:31:33;;;;;;;;;;;;;;;;;;4996490;28;20035;-71
2023/07/26 09:34:06;;;;;;;1.83;1.73;;;;;;;;;;4995782;28;19942;-71
2023/07/26 09:36:48;;;;;;;2.10;2.00;;;;;;;;;;4995698;28;20038;-71
2023/07/26 09:39:14;;;;;;;2.10;2.00;;;;;;;;;;4978354;28;20026;-71
2023/07/26 09:41:40;;;;;;;2.00;1.90;;;;;;;;;;4995367;28;20038;-71
2023/07/26 09:44:08;;;;;;;1.60;1.50;;;;;;;;;;4995550;28;20033;-71
2023/07/26 09:46:47;;;;;;;1.63;1.52;;;;;;;;;;4978433;28;20045;-71
2023/07/26 09:49:13;;;;;;;1.90;1.80;;;;;;;;;;4995538;28;20026;-71
2023/07/26 09:51:38;;;;;;;1.75;1.60;;;;;;;;;;4995221;28;20484;-71
2023/07/26 09:54:05;;;;;;;1.88;1.65;;;;;;;;;;4977704;28;20030;-71
2023/07/26 09:56:31;;;;;;;1.50;1.40;;;;;;;;;;4995107;28;20034;-71
2023/07/26 09:58:57;;;;;;;1.48;1.38;;;;;;;;;;4977744;28;20022;-70
2023/07/26 10:01:23;;;;;;;1.55;1.45;;;;;;;;;;4994997;28;20080;-71
2023/07/26 10:03:51;;;;;;;1.10;1.10;;;;;;;;;;4994521;28;20066;-71
2023/07/26 10:06:18;;;;;;;2.15;1.40;;;;;;;;;;4994929;28;20019;-71
2023/07/26 10:08:45;;;;;;;1.05;1.05;;;;;;;;;;4977978;28;20026;-71
2023/07/26 10:11:12;;;;;;;1.60;1.50;;;;;;;;;;5009947;28;20034;-71
2023/07/26 10:13:38;;;;;;;2.65;1.50;;;;;;;;;;4995059;28;20053;-71
2023/07/26 10:16:04;;;;;;;1.55;1.45;;;;;;;;;;4994732;28;20030;-71
2023/07/26 10:18:30;;;;;;;2.28;1.50;;;;;;;;;;4997857;28;20057;-71
2023/07/26 10:21:00;;;;;;;3.45;1.88;;;;;;;;;;5014214;28;20021;-70
2023/07/26 10:23:26;;;;;;;1.70;1.60;;;;;;;;;;5014751;28;20120;-71
2023/07/26 10:25:51;;;;;;;1.88;1.77;;;;;;;;;;4980468;28;20057;-71
2023/07/26 10:28:17;;;;;;;2.17;1.50;;;;;;;;;;5014764;28;20030;-70
2023/07/26 10:30:42;;;;;;;1.58;1.48;;;;;;;;;;4996556;28;20033;-70
2023/07/26 10:33:14;;;;;;;1.30;1.20;;;;;;;;;;5014397;28;20042;-71
2023/07/26 10:35:42;;;;;;;1.52;1.38;;;;;;;;;;5014346;28;20036;-71
2023/07/26 10:38:08;;;;;;;1.50;1.40;;;;;;;;;;4996492;28;20030;-71
2023/07/26 10:40:34;;;;;;;1.40;1.30;;;;;;;;;;5013985;28;20034;-70
2023/07/26 10:43:14;;;;;;;1.58;1.48;;;;;;;;;;5013929;28;20036;-70
2023/07/26 10:45:42;;;;;;;1.98;1.30;;;;;;;;;;4996568;28;20217;-71
2023/07/26 10:48:14;;;;;;;1.40;1.30;;;;;;;;;;5013966;28;20018;-71
2023/07/26 10:50:40;;;;;;;1.25;1.10;;;;;;;;;;5013875;28;20030;-71
2023/07/26 10:53:24;;;;;;;1.25;1.00;;;;;;;;;;5014177;28;20060;-71
2023/07/26 10:55:50;;;;;;;1.00;1.00;;;;;;;;;;4996327;28;20465;-71
2023/07/26 10:58:15;;;;;;;1.27;1.17;;;;;;;;;;5013840;28;20037;-71
2023/07/26 11:00:41;;;;;;;1.50;1.05;;;;;;;;;;4996561;28;20080;-71
2023/07/26 11:03:08;;;;;;;1.00;1.00;;;;;;;;;;5013631;28;20101;-71
2023/07/26 11:05:38;;;;;;;1.20;1.10;;;;;;;;;;5014024;28;20061;-71
2023/07/26 11:08:03;;;;;;;1.20;1.10;;;;;;;;;;5014005;28;20045;-71
2023/07/26 11:10:32;;;;;;;1.25;0.90;;;;;;;;;;5029232;28;20034;-71
2023/07/26 11:13:07;;;;;;;0.60;0.60;;;;;;;;;;5013740;28;20037;-70
2023/07/26 11:15:33;;;;;;;0.80;0.80;;;;;;;;;;5014522;28;20036;-70
2023/07/26 11:17:59;;;;;;;0.80;0.70;;;;;;;;;;5000024;28;20030;-70
2023/07/26 11:20:24;;;;;;;0.98;0.95;;;;;;;;;;5017474;28;20492;-70
2023/07/26 11:22:50;;;;;;;0.75;0.75;;;;;;;;;;4999978;28;20038;-70
2023/07/26 11:25:15;;;;;;;0.82;0.60;;;;;;;;;;5025526;23;20058;-71
2023/07/26 11:27:40;;;;;;;1.63;0.73;;;;;;;;;;5006329;23;20398;-71
2023/07/26 11:30:12;;;;;;;0.88;0.85;;;;;;;;;;4999916;28;20084;-71
2023/07/26 11:32:41;;;;;;;0.63;0.63;;;;;;;;;;5017369;28;20110;-71
2023/07/26 11:35:07;;;;;;;1.13;0.90;;;;;;;;;;4999797;28;20493;-71
2023/07/26 11:37:34;;;;;;;1.73;0.90;;;;;;;;;;5017201;28;20101;-71
2023/07/26 11:40:00;;;;;;;1.38;0.88;;;;;;;;;;5017266;28;20034;-71
2023/07/26 11:42:26;;;;;;;1.08;0.80;;;;;;;;;;5017000;28;20499;-71
2023/07/26 11:44:54;;;;;;;0.93;0.82;;;;;;;;;;5017390;28;20156;-71
2023/07/26 11:47:21;;;;;;;1.50;1.00;;;;;;;;;;5017078;28;20057;-71
2023/07/26 11:49:46;;;;;;;0.95;0.95;;;;;;;;;;5017039;28;20022;-71
2023/07/26 11:52:14;;;;;;;0.90;0.90;;;;;;;;;;4999508;28;20519;-70
2023/07/26 11:54:56;;;;;;;0.80;0.80;;;;;;;;;;5016892;28;20037;-71
2023/07/26 11:57:21;;;;;;;1.05;0.90;;;;;;;;;;5016834;28;20057;-72
2023/07/26 11:59:47;;;;;;;1.33;0.80;;;;;;;;;;5016810;28;20495;-71
2023/07/26 12:02:12;;;;;;;1.38;0.77;;;;;;;;;;4983020;28;20056;-71
2023/07/26 12:04:38;;;;;;;1.58;0.63;;;;;;;;;;5016944;28;20037;-71
2023/07/26 12:07:05;;;;;;;1.35;0.73;;;;;;;;;;5016687;28;20010;-71
2023/07/26 12:09:30;;;;;;;0.75;0.75;;;;;;;;;;5016745;28;20025;-71
2023/07/26 12:11:57;;;;;;;1.05;0.68;;;;;;;;;;4999199;28;20432;-71
2023/07/26 12:14:23;;;;;;;0.85;0.82;;;;;;;;;;5016634;28;20030;-71
2023/07/26 12:16:51;;;;;;;1.55;0.70;;;;;;;;;;5016570;28;20033;-72
2023/07/26 12:19:20;;;;;;;0.70;0.70;;;;;;;;;;5016454;28;20033;-71
2023/07/26 12:21:47;;;;;;;1.92;0.68;;;;;;;;;;5016491;28;20022;-72
2023/07/26 12:24:12;;;;;;;1.42;0.70;;;;;;;;;;5016365;28;20034;-70
2023/07/26 12:26:40;;;;;;;1.88;0.90;;;;;;;;;;5009866;28;20393;-70
2023/07/26 12:29:06;;;;;;;0.88;0.68;;;;;;;;;;4995996;28;20034;-70
2023/07/26 12:31:56;;;;;;;1.80;1.10;;;;;;;;;;5011127;23;20057;-71
2023/07/26 12:34:30;;;;;;;0.70;0.70;;;;;;;;;;5013779;28;20057;-71
2023/07/26 12:36:59;;;;;;;0.75;0.73;;;;;;;;;;5016141;28;20056;-71
2023/07/26 12:39:24;;;;;;;1.10;0.75;;;;;;;;;;5016047;28;20112;-72
2023/07/26 12:41:49;;;;;;;0.93;0.93;;;;;;;;;;5016063;28;20113;-72
2023/07/26 12:44:15;;;;;;;0.88;0.88;;;;;;;;;;5015908;28;20026;-71
2023/07/26 12:46:42;;;;;;;0.70;0.70;;;;;;;;;;5015956;28;20021;-71
2023/07/26 12:49:10;;;;;;;1.27;1.17;;;;;;;;;;5016296;28;20037;-71
2023/07/26 12:51:35;;;;;;;1.02;0.98;;;;;;;;;;4998363;28;20076;-71
2023/07/26 12:54:02;;;;;;;0.93;0.93;;;;;;;;;;5015878;28;20038;-71
2023/07/26 12:56:28;;;;;;;0.90;0.90;;;;;;;;;;5015785;28;20104;-71
2023/07/26 12:58:53;;;;;;;0.82;0.82;;;;;;;;;;5014863;28;20449;-71
2023/07/26 13:01:19;;;;;;;0.90;0.90;;;;;;;;;;5015975;28;20038;-71
2023/07/26 13:03:44;;;;;;;0.93;0.90;;;;;;;;;;5015841;28;20033;-72
2023/07/26 13:06:10;;;;;;;0.98;0.98;;;;;;;;;;5016143;28;20034;-71
2023/07/26 13:08:35;;;;;;;0.90;0.90;;;;;;;;;;5015813;28;20037;-71
2023/07/26 13:11:00;;;;;;;1.38;1.20;;;;;;;;;;4998381;28;20062;-71
2023/07/26 13:13:26;;;;;;;1.27;1.17;;;;;;;;;;5015469;28;20462;-71
2023/07/26 13:15:51;;;;;;;1.27;1.17;;;;;;;;;;5015728;28;20030;-71
2023/07/26 13:18:17;;;;;;;1.13;1.08;;;;;;;;;;4997811;28;20104;-71
2023/07/26 13:20:42;;;;;;;1.02;0.98;;;;;;;;;;5014107;28;20038;-71
2023/07/26 13:23:08;;;;;;;3.38;1.25;;;;;;;;;;5015230;28;20394;-72
2023/07/26 13:25:33;;;;;;;1.42;1.23;;;;;;;;;;5015386;28;20465;-72
2023/07/26 13:27:58;;;;;;;1.00;1.00;;;;;;;;;;5015207;28;20088;-71
2023/07/26 13:30:24;;;;;;;1.30;1.20;;;;;;;;;;5015963;28;20029;-71
2023/07/26 13:32:51;;;;;;;0.98;0.90;;;;;;;;;;5022263;23;20060;-71
2023/07/26 13:35:16;;;;;;;0.88;0.88;;;;;;;;;;5005222;28;20042;-71
2023/07/26 13:37:42;;;;;;;0.80;0.75;;;;;;;;;;4995665;28;20030;-71
2023/07/26 13:40:07;;;;;;;7.43;1.30;;;;;;;;;;4995262;28;20054;-71
2023/07/26 13:42:33;;;;;;;0.90;0.80;;;;;;;;;;4995240;28;20121;-71
2023/07/26 13:44:59;;;;;;;0.80;0.80;;;;;;;;;;4999847;28;20034;-71
2023/07/26 13:47:24;;;;;;;1.20;0.80;;;;;;;;;;5009035;28;20026;-71
2023/07/26 13:49:50;;;;;;;1.50;1.10;;;;;;;;;;5001681;28;20093;-72
2023/07/26 13:52:15;;;;;;;2.35;0.90;;;;;;;;;;5008774;28;20022;-72
2023/07/26 13:54:41;;;;;;;1.65;0.70;;;;;;;;;;5029944;28;20034;-71
2023/07/26 13:57:08;;;;;;;0.80;0.80;;;;;;;;;;5015107;28;20041;-73
2023/07/26 13:59:36;;;;;;;0.80;0.80;;;;;;;;;;5014436;28;20071;-72
2023/07/26 14:02:02;;;;;;;1.40;0.77;;;;;;;;;;5004311;28;20026;-72
2023/07/26 14:04:28;;;;;;;1.00;0.75;;;;;;;;;;4994838;28;20050;-74
2023/07/26 14:06:53;;;;;;;1.05;0.93;;;;;;;;;;4994873;28;20490;-73
2023/07/26 14:09:18;;;;;;;1.17;0.63;;;;;;;;;;4995157;28;20485;-73
2023/07/26 14:11:44;;;;;;;1.75;0.90;;;;;;;;;;4999300;28;20359;-73
2023/07/26 14:14:10;;;;;;;1.00;0.80;;;;;;;;;;5003001;28;20022;-73
2023/07/26 14:16:35;;;;;;;1.55;0.80;;;;;;;;;;5009285;28;20385;-73
2023/07/26 14:19:00;;;;;;;1.15;1.00;;;;;;;;;;5009263;28;20437;-73
2023/07/26 14:21:25;;;;;;;1.75;0.95;;;;;;;;;;4994417;28;20026;-72
2023/07/26 14:23:51;;;;;;;1.13;0.98;;;;;;;;;;4994466;28;20477;-72
2023/07/26 14:26:16;;;;;;;1.35;0.93;;;;;;;;;;4993228;28;20109;-71
2023/07/26 14:28:42;;;;;;;1.77;0.93;;;;;;;;;;4994375;28;20089;-72
2023/07/26 14:31:07;;;;;;;1.30;1.00;;;;;;;;;;4994389;28;20018;-72
2023/07/26 14:33:32;;;;;;;0.75;0.75;;;;;;;;;;4998860;28;20436;-72
2023/07/26 14:35:58;;;;;;;1.77;1.10;;;;;;;;;;5007917;28;20022;-73
2023/07/26 14:38:23;;;;;;;1.10;0.93;;;;;;;;;;5012132;28;20048;-72
2023/07/26 14:40:48;;;;;;;1.13;0.85;;;;;;;;;;5002354;28;20026;-73